Bookmark and Share
Track history (hours):
 

Elizabeth Mc Allister

More information available from US FCC via Universal Licensing System and Coast Guard Vessel Documentation Center.

Last reported at 2014-Apr-22 07:11 UTC. Time now 2014-Apr-24 22:03 UTC.
Position N 40°27' W 074°03'.

Length 31 m.

Type: Tug. MMSI: 366945680.

NotesDate/timePositionNaut miles runAvg speedWind from/ knotsBaromVisibWave heightAir tempDewpointWater temp
2014-Apr-22 07:11N 40°27' W 074°03'0 0.0
2014-Apr-22 06:33N 40°27' W 074°03'0 0.0
2014-Apr-22 05:18N 40°27' W 074°03'0 0.0
2014-Apr-22 01:24N 40°27' W 074°03'0 0.0
2014-Apr-21 14:18N 40°27' W 074°03'0 0.0
2014-Apr-21 13:21N 40°27' W 074°03'0 0.0
2014-Apr-21 12:33N 40°27' W 074°03'0 0.0
2014-Apr-21 11:25N 40°27' W 074°03'0 0.0
2014-Apr-21 10:32N 40°27' W 074°03'0 0.0
2014-Apr-21 07:05N 40°27' W 074°03'0 0.0
2014-Apr-21 06:31N 40°27' W 074°03'0 0.0
2014-Apr-21 05:33N 40°27' W 074°03'0 0.0
2014-Apr-21 04:13N 40°27' W 074°03'0 0.0
2014-Apr-19 04:25N 40°27' W 074°03'0 0.0
2014-Apr-19 03:33N 40°27' W 074°03'0 0.0
2014-Apr-18 15:23N 40°27' W 074°03'0 0.6
2014-Apr-18 14:33N 40°28' W 074°03'1 1.2
2014-Apr-18 13:33N 40°28' W 074°02'2 1.6
2014-Apr-18 12:33N 40°27' W 074°03'4 4.2
2014-Apr-18 11:33N 40°31' W 074°03'8 8.4
2014-Apr-18 10:34N 40°39' W 074°08'1 1.3
2014-Apr-18 09:34N 40°38' W 074°10'0 0.0
2014-Apr-18 08:33N 40°38' W 074°10'0 0.0
2014-Apr-18 07:34N 40°38' W 074°10'0 0.0
2014-Apr-18 06:33N 40°38' W 074°10'0 0.0
2014-Apr-18 05:33N 40°38' W 074°10'0 0.0
2014-Apr-18 04:34N 40°38' W 074°10'0 0.0
2014-Apr-18 03:33N 40°38' W 074°10'2 2.4
2014-Apr-18 02:33N 40°41' W 074°09'2 2.3
2014-Apr-18 01:34N 40°38' W 074°10'6 4.3
2014-Apr-18 00:13N 40°33' W 074°14'1 0.8
2014-Apr-17 23:22N 40°33' W 074°14'1 0.6
2014-Apr-17 21:23N 40°34' W 074°13'5 6.2
2014-Apr-17 20:32N 40°38' W 074°10'0 0.0
2014-Apr-17 19:33N 40°38' W 074°10'  

Dump ship's entire track history

sailing weather and tide predictions

Elizabeth Mc Allister — WDB7652 — position and weather